sensor_id;sensor_type;location;lat;lon;timestamp;temperature;humidity
50556;DHT22;36508;52.512;13.450;2023-07-22T00:01:14;15.20;99.90
50556;DHT22;36508;52.512;13.450;2023-07-22T00:03:40;15.40;99.90
50556;DHT22;36508;52.512;13.450;2023-07-22T00:06:09;15.20;99.90
50556;DHT22;36508;52.512;13.450;2023-07-22T00:08:36;15.20;99.90
50556;DHT22;36508;52.512;13.450;2023-07-22T00:11:03;15.20;99.90
50556;DHT22;36508;52.512;13.450;2023-07-22T00:13:28;15.30;99.90
50556;DHT22;36508;52.512;13.450;2023-07-22T00:15:55;15.30;99.90
50556;DHT22;36508;52.512;13.450;2023-07-22T00:18:21;15.30;99.90
50556;DHT22;36508;52.512;13.450;2023-07-22T00:20:47;15.30;99.90
50556;DHT22;36508;52.512;13.450;2023-07-22T00:23:13;15.20;99.90
50556;DHT22;36508;52.512;13.450;2023-07-22T00:25:40;15.20;99.90
50556;DHT22;36508;52.512;13.450;2023-07-22T00:28:06;15.10;99.90
50556;DHT22;36508;52.512;13.450;2023-07-22T00:30:32;15.10;99.90
50556;DHT22;36508;52.512;13.450;2023-07-22T00:32:57;15.10;99.90
50556;DHT22;36508;52.512;13.450;2023-07-22T00:35:23;15.00;99.90
50556;DHT22;36508;52.512;13.450;2023-07-22T00:37:48;15.10;99.90
50556;DHT22;36508;52.512;13.450;2023-07-22T00:40:14;15.10;99.90
50556;DHT22;36508;52.512;13.450;2023-07-22T00:42:41;15.10;99.90
50556;DHT22;36508;52.512;13.450;2023-07-22T00:45:14;15.10;99.90
50556;DHT22;36508;52.512;13.450;2023-07-22T00:47:40;15.10;99.90
50556;DHT22;36508;52.512;13.450;2023-07-22T00:50:07;15.10;99.90
50556;DHT22;36508;52.512;13.450;2023-07-22T00:52:37;15.10;99.90
50556;DHT22;36508;52.512;13.450;2023-07-22T00:55:04;15.10;99.90
50556;DHT22;36508;52.512;13.450;2023-07-22T00:57:30;15.10;99.90
50556;DHT22;36508;52.512;13.450;2023-07-22T00:59:56;15.10;99.90
50556;DHT22;36508;52.512;13.450;2023-07-22T01:02:22;15.10;99.90
50556;DHT22;36508;52.512;13.450;2023-07-22T01:04:49;15.00;99.90
50556;DHT22;36508;52.512;13.450;2023-07-22T01:07:15;15.00;99.90
50556;DHT22;36508;52.512;13.450;2023-07-22T01:09:42;15.00;99.90
50556;DHT22;36508;52.512;13.450;2023-07-22T01:12:08;15.00;99.90
50556;DHT22;36508;52.512;13.450;2023-07-22T01:14:35;15.00;99.90
50556;DHT22;36508;52.512;13.450;2023-07-22T01:17:05;15.00;99.90
50556;DHT22;36508;52.512;13.450;2023-07-22T01:19:31;15.00;99.90
50556;DHT22;36508;52.512;13.450;2023-07-22T01:22:02;15.10;99.90
50556;DHT22;36508;52.512;13.450;2023-07-22T01:24:31;15.00;99.90
50556;DHT22;36508;52.512;13.450;2023-07-22T01:26:57;15.10;99.90
50556;DHT22;36508;52.512;13.450;2023-07-22T01:29:24;15.10;99.90
50556;DHT22;36508;52.512;13.450;2023-07-22T01:31:51;15.20;99.90
50556;DHT22;36508;52.512;13.450;2023-07-22T01:34:17;15.20;99.90
50556;DHT22;36508;52.512;13.450;2023-07-22T01:36:45;15.20;99.90
50556;DHT22;36508;52.512;13.450;2023-07-22T01:39:13;15.20;99.90
50556;DHT22;36508;52.512;13.450;2023-07-22T01:41:39;15.20;99.90
50556;DHT22;36508;52.512;13.450;2023-07-22T01:44:05;15.20;99.90
50556;DHT22;36508;52.512;13.450;2023-07-22T01:46:30;15.30;99.90
50556;DHT22;36508;52.512;13.450;2023-07-22T01:48:56;15.20;99.90
50556;DHT22;36508;52.512;13.450;2023-07-22T01:51:22;15.20;99.90
50556;DHT22;36508;52.512;13.450;2023-07-22T01:53:48;15.30;99.90
50556;DHT22;36508;52.512;13.450;2023-07-22T01:56:15;15.20;99.90
50556;DHT22;36508;52.512;13.450;2023-07-22T01:58:41;15.20;99.90
50556;DHT22;36508;52.512;13.450;2023-07-22T02:01:07;15.20;99.90
50556;DHT22;36508;52.512;13.450;2023-07-22T02:03:33;15.20;99.90
50556;DHT22;36508;52.512;13.450;2023-07-22T02:06:03;15.20;99.90
50556;DHT22;36508;52.512;13.450;2023-07-22T02:08:29;15.10;99.90
50556;DHT22;36508;52.512;13.450;2023-07-22T02:10:54;15.10;99.90
50556;DHT22;36508;52.512;13.450;2023-07-22T02:13:20;15.00;99.90
50556;DHT22;36508;52.512;13.450;2023-07-22T02:15:45;15.00;99.90
50556;DHT22;36508;52.512;13.450;2023-07-22T02:18:12;15.00;99.90
50556;DHT22;36508;52.512;13.450;2023-07-22T02:20:37;14.90;99.90
50556;DHT22;36508;52.512;13.450;2023-07-22T02:23:04;14.90;99.90
50556;DHT22;36508;52.512;13.450;2023-07-22T02:25:29;14.80;99.90
50556;DHT22;36508;52.512;13.450;2023-07-22T02:27:55;14.80;99.90
50556;DHT22;36508;52.512;13.450;2023-07-22T02:30:21;14.80;99.90
50556;DHT22;36508;52.512;13.450;2023-07-22T02:32:46;14.70;99.90
50556;DHT22;36508;52.512;13.450;2023-07-22T02:35:12;14.70;99.90
50556;DHT22;36508;52.512;13.450;2023-07-22T02:37:38;14.60;99.90
50556;DHT22;36508;52.512;13.450;2023-07-22T02:40:04;14.60;99.90
50556;DHT22;36508;52.512;13.450;2023-07-22T02:42:37;14.60;99.90
50556;DHT22;36508;52.512;13.450;2023-07-22T02:45:03;14.60;99.90
50556;DHT22;36508;52.512;13.450;2023-07-22T02:47:31;14.60;99.90
50556;DHT22;36508;52.512;13.450;2023-07-22T02:49:57;14.60;99.90
50556;DHT22;36508;52.512;13.450;2023-07-22T02:52:23;14.50;99.90
50556;DHT22;36508;52.512;13.450;2023-07-22T02:55:24;14.50;99.90
50556;DHT22;36508;52.512;13.450;2023-07-22T02:57:49;14.50;99.90
50556;DHT22;36508;52.512;13.450;2023-07-22T03:00:18;14.50;99.90
50556;DHT22;36508;52.512;13.450;2023-07-22T03:02:52;14.50;99.90
50556;DHT22;36508;52.512;13.450;2023-07-22T03:05:18;14.50;99.90
50556;DHT22;36508;52.512;13.450;2023-07-22T03:07:44;14.50;99.90
50556;DHT22;36508;52.512;13.450;2023-07-22T03:10:09;14.40;99.90
50556;DHT22;36508;52.512;13.450;2023-07-22T03:12:36;14.50;99.90
50556;DHT22;36508;52.512;13.450;2023-07-22T03:15:02;14.40;99.90
50556;DHT22;36508;52.512;13.450;2023-07-22T03:17:29;14.40;99.90
50556;DHT22;36508;52.512;13.450;2023-07-22T03:19:55;14.40;99.90
50556;DHT22;36508;52.512;13.450;2023-07-22T03:22:20;14.40;99.90
50556;DHT22;36508;52.512;13.450;2023-07-22T03:24:46;14.30;99.90
50556;DHT22;36508;52.512;13.450;2023-07-22T03:27:12;14.30;99.90
50556;DHT22;36508;52.512;13.450;2023-07-22T03:29:38;14.40;99.90
50556;DHT22;36508;52.512;13.450;2023-07-22T03:32:05;14.40;99.90
50556;DHT22;36508;52.512;13.450;2023-07-22T03:34:31;14.40;99.90
50556;DHT22;36508;52.512;13.450;2023-07-22T03:36:57;14.40;99.90
50556;DHT22;36508;52.512;13.450;2023-07-22T03:39:26;14.30;99.90
50556;DHT22;36508;52.512;13.450;2023-07-22T03:41:51;14.40;99.90
50556;DHT22;36508;52.512;13.450;2023-07-22T03:44:17;14.40;99.90
50556;DHT22;36508;52.512;13.450;2023-07-22T03:46:42;14.30;99.90
50556;DHT22;36508;52.512;13.450;2023-07-22T03:49:08;14.30;99.90
50556;DHT22;36508;52.512;13.450;2023-07-22T03:51:33;14.30;99.90
50556;DHT22;36508;52.512;13.450;2023-07-22T03:53:59;14.30;99.90
50556;DHT22;36508;52.512;13.450;2023-07-22T03:56:25;14.30;99.90
50556;DHT22;36508;52.512;13.450;2023-07-22T03:58:51;14.30;99.90
50556;DHT22;36508;52.512;13.450;2023-07-22T04:01:17;14.20;99.90
50556;DHT22;36508;52.512;13.450;2023-07-22T04:03:43;14.30;99.90
50556;DHT22;36508;52.512;13.450;2023-07-22T04:06:09;14.30;99.90
50556;DHT22;36508;52.512;13.450;2023-07-22T04:08:34;14.30;99.90
50556;DHT22;36508;52.512;13.450;2023-07-22T04:11:00;14.30;99.90
50556;DHT22;36508;52.512;13.450;2023-07-22T04:13:26;14.30;99.90
50556;DHT22;36508;52.512;13.450;2023-07-22T04:15:52;14.30;99.90
50556;DHT22;36508;52.512;13.450;2023-07-22T04:18:22;14.30;99.90
50556;DHT22;36508;52.512;13.450;2023-07-22T04:20:48;14.40;99.90
50556;DHT22;36508;52.512;13.450;2023-07-22T04:23:14;14.40;99.90
50556;DHT22;36508;52.512;13.450;2023-07-22T04:25:40;14.40;99.90
50556;DHT22;36508;52.512;13.450;2023-07-22T04:28:06;14.30;99.90
50556;DHT22;36508;52.512;13.450;2023-07-22T04:30:33;14.30;99.90
50556;DHT22;36508;52.512;13.450;2023-07-22T04:32:59;14.30;99.90
50556;DHT22;36508;52.512;13.450;2023-07-22T04:35:24;14.30;99.90
50556;DHT22;36508;52.512;13.450;2023-07-22T04:37:50;14.40;99.90
50556;DHT22;36508;52.512;13.450;2023-07-22T04:40:16;14.40;99.90
50556;DHT22;36508;52.512;13.450;2023-07-22T04:42:43;14.50;99.90
50556;DHT22;36508;52.512;13.450;2023-07-22T04:45:10;14.50;99.90
50556;DHT22;36508;52.512;13.450;2023-07-22T04:47:39;14.50;99.90
50556;DHT22;36508;52.512;13.450;2023-07-22T04:50:07;14.50;99.90
50556;DHT22;36508;52.512;13.450;2023-07-22T04:52:35;14.60;99.90
50556;DHT22;36508;52.512;13.450;2023-07-22T04:55:01;14.60;99.90
50556;DHT22;36508;52.512;13.450;2023-07-22T04:57:30;14.70;99.90
50556;DHT22;36508;52.512;13.450;2023-07-22T04:59:56;14.60;99.90
50556;DHT22;36508;52.512;13.450;2023-07-22T05:02:21;14.60;99.90
50556;DHT22;36508;52.512;13.450;2023-07-22T05:04:47;14.60;99.90
50556;DHT22;36508;52.512;13.450;2023-07-22T05:07:12;14.60;99.90
50556;DHT22;36508;52.512;13.450;2023-07-22T05:09:38;14.70;99.90
50556;DHT22;36508;52.512;13.450;2023-07-22T05:12:03;15.00;99.90
50556;DHT22;36508;52.512;13.450;2023-07-22T05:14:29;15.40;99.90
50556;DHT22;36508;52.512;13.450;2023-07-22T05:16:55;15.30;99.90
50556;DHT22;36508;52.512;13.450;2023-07-22T05:19:20;15.10;99.90
50556;DHT22;36508;52.512;13.450;2023-07-22T05:21:46;15.00;99.90
50556;DHT22;36508;52.512;13.450;2023-07-22T05:24:11;14.90;99.90
50556;DHT22;36508;52.512;13.450;2023-07-22T05:26:38;14.80;99.90
50556;DHT22;36508;52.512;13.450;2023-07-22T05:29:03;14.90;99.90
50556;DHT22;36508;52.512;13.450;2023-07-22T05:31:29;14.80;99.90
50556;DHT22;36508;52.512;13.450;2023-07-22T05:33:54;14.90;99.90
50556;DHT22;36508;52.512;13.450;2023-07-22T05:36:21;14.90;99.90
50556;DHT22;36508;52.512;13.450;2023-07-22T05:38:46;14.90;99.90
50556;DHT22;36508;52.512;13.450;2023-07-22T05:41:12;14.90;99.90
50556;DHT22;36508;52.512;13.450;2023-07-22T05:43:37;15.00;99.90
50556;DHT22;36508;52.512;13.450;2023-07-22T05:46:03;15.10;99.90
50556;DHT22;36508;52.512;13.450;2023-07-22T05:48:29;15.00;99.90
50556;DHT22;36508;52.512;13.450;2023-07-22T05:50:54;15.00;99.90
50556;DHT22;36508;52.512;13.450;2023-07-22T05:53:20;15.00;99.90
50556;DHT22;36508;52.512;13.450;2023-07-22T05:55:46;15.10;99.90
50556;DHT22;36508;52.512;13.450;2023-07-22T05:58:18;15.20;99.90
50556;DHT22;36508;52.512;13.450;2023-07-22T06:00:43;15.30;99.90
50556;DHT22;36508;52.512;13.450;2023-07-22T06:03:09;15.40;99.90
50556;DHT22;36508;52.512;13.450;2023-07-22T06:05:35;15.30;99.90
50556;DHT22;36508;52.512;13.450;2023-07-22T06:08:00;15.20;99.90
50556;DHT22;36508;52.512;13.450;2023-07-22T06:10:26;15.10;99.90
50556;DHT22;36508;52.512;13.450;2023-07-22T06:12:51;15.10;99.90
50556;DHT22;36508;52.512;13.450;2023-07-22T06:15:17;15.20;99.90
50556;DHT22;36508;52.512;13.450;2023-07-22T06:17:43;15.20;99.90
50556;DHT22;36508;52.512;13.450;2023-07-22T06:20:09;15.10;99.90
50556;DHT22;36508;52.512;13.450;2023-07-22T06:22:34;15.20;99.90
50556;DHT22;36508;52.512;13.450;2023-07-22T06:25:00;15.20;99.90
50556;DHT22;36508;52.512;13.450;2023-07-22T06:27:25;15.30;99.90
50556;DHT22;36508;52.512;13.450;2023-07-22T06:29:51;15.40;99.90
50556;DHT22;36508;52.512;13.450;2023-07-22T06:32:17;15.40;99.90
50556;DHT22;36508;52.512;13.450;2023-07-22T06:34:42;15.50;99.90
50556;DHT22;36508;52.512;13.450;2023-07-22T06:37:08;15.50;99.90
50556;DHT22;36508;52.512;13.450;2023-07-22T06:39:33;15.60;99.90
50556;DHT22;36508;52.512;13.450;2023-07-22T06:41:59;15.60;99.90
50556;DHT22;36508;52.512;13.450;2023-07-22T06:44:24;15.50;99.90
50556;DHT22;36508;52.512;13.450;2023-07-22T06:46:50;15.60;99.90
50556;DHT22;36508;52.512;13.450;2023-07-22T06:49:16;15.70;99.90
50556;DHT22;36508;52.512;13.450;2023-07-22T06:51:41;15.70;99.90
50556;DHT22;36508;52.512;13.450;2023-07-22T06:54:07;15.80;99.90
50556;DHT22;36508;52.512;13.450;2023-07-22T06:56:32;15.90;99.90
50556;DHT22;36508;52.512;13.450;2023-07-22T06:58:58;16.00;99.90
50556;DHT22;36508;52.512;13.450;2023-07-22T07:01:23;16.00;99.90
50556;DHT22;36508;52.512;13.450;2023-07-22T07:03:49;16.10;99.90
50556;DHT22;36508;52.512;13.450;2023-07-22T07:06:15;16.10;99.90
50556;DHT22;36508;52.512;13.450;2023-07-22T07:08:41;16.10;99.90
50556;DHT22;36508;52.512;13.450;2023-07-22T07:11:07;16.00;99.90
50556;DHT22;36508;52.512;13.450;2023-07-22T07:13:32;16.20;99.90
50556;DHT22;36508;52.512;13.450;2023-07-22T07:16:28;16.20;99.90
50556;DHT22;36508;52.512;13.450;2023-07-22T07:18:54;16.20;99.90
50556;DHT22;36508;52.512;13.450;2023-07-22T07:21:20;16.30;99.90
50556;DHT22;36508;52.512;13.450;2023-07-22T07:23:47;16.30;99.90
50556;DHT22;36508;52.512;13.450;2023-07-22T07:26:12;16.30;99.90
50556;DHT22;36508;52.512;13.450;2023-07-22T07:28:38;16.40;99.90
50556;DHT22;36508;52.512;13.450;2023-07-22T07:31:03;16.50;99.90
50556;DHT22;36508;52.512;13.450;2023-07-22T07:33:29;16.60;99.90
50556;DHT22;36508;52.512;13.450;2023-07-22T07:35:55;16.50;99.90
50556;DHT22;36508;52.512;13.450;2023-07-22T07:38:20;16.50;99.90
50556;DHT22;36508;52.512;13.450;2023-07-22T07:40:46;16.50;99.90
50556;DHT22;36508;52.512;13.450;2023-07-22T07:43:11;16.60;99.90
50556;DHT22;36508;52.512;13.450;2023-07-22T07:45:39;16.70;99.90
50556;DHT22;36508;52.512;13.450;2023-07-22T07:48:05;16.70;99.90
50556;DHT22;36508;52.512;13.450;2023-07-22T07:50:32;16.80;99.90
50556;DHT22;36508;52.512;13.450;2023-07-22T07:52:58;16.80;99.90
50556;DHT22;36508;52.512;13.450;2023-07-22T07:55:25;17.00;99.90
50556;DHT22;36508;52.512;13.450;2023-07-22T07:57:50;16.90;99.90
50556;DHT22;36508;52.512;13.450;2023-07-22T08:00:16;16.90;99.90
50556;DHT22;36508;52.512;13.450;2023-07-22T08:02:42;17.00;99.90
50556;DHT22;36508;52.512;13.450;2023-07-22T08:05:08;17.10;99.90
50556;DHT22;36508;52.512;13.450;2023-07-22T08:07:34;17.20;99.90
50556;DHT22;36508;52.512;13.450;2023-07-22T08:10:01;17.20;99.90
50556;DHT22;36508;52.512;13.450;2023-07-22T08:12:30;17.20;99.90
50556;DHT22;36508;52.512;13.450;2023-07-22T08:14:56;17.10;99.90
50556;DHT22;36508;52.512;13.450;2023-07-22T08:17:23;17.10;99.90
50556;DHT22;36508;52.512;13.450;2023-07-22T08:19:49;17.20;99.90
50556;DHT22;36508;52.512;13.450;2023-07-22T08:22:15;17.00;99.90
50556;DHT22;36508;52.512;13.450;2023-07-22T08:24:40;16.90;99.90
50556;DHT22;36508;52.512;13.450;2023-07-22T08:27:06;17.00;99.90
50556;DHT22;36508;52.512;13.450;2023-07-22T08:29:32;17.00;99.90
50556;DHT22;36508;52.512;13.450;2023-07-22T08:31:58;17.10;99.90
50556;DHT22;36508;52.512;13.450;2023-07-22T08:34:23;17.30;99.90
50556;DHT22;36508;52.512;13.450;2023-07-22T08:36:49;17.40;99.90
50556;DHT22;36508;52.512;13.450;2023-07-22T08:39:15;17.60;99.90
50556;DHT22;36508;52.512;13.450;2023-07-22T08:41:43;17.60;99.90
50556;DHT22;36508;52.512;13.450;2023-07-22T08:44:13;17.40;99.90
50556;DHT22;36508;52.512;13.450;2023-07-22T08:46:41;17.50;99.90
50556;DHT22;36508;52.512;13.450;2023-07-22T08:49:08;17.50;99.90
50556;DHT22;36508;52.512;13.450;2023-07-22T08:51:35;17.40;99.90
50556;DHT22;36508;52.512;13.450;2023-07-22T08:54:03;17.60;99.90
50556;DHT22;36508;52.512;13.450;2023-07-22T08:56:28;17.60;99.90
50556;DHT22;36508;52.512;13.450;2023-07-22T08:58:55;17.50;99.90
50556;DHT22;36508;52.512;13.450;2023-07-22T09:01:21;17.60;99.90
50556;DHT22;36508;52.512;13.450;2023-07-22T09:03:49;17.70;99.90
50556;DHT22;36508;52.512;13.450;2023-07-22T09:06:19;17.90;99.90
50556;DHT22;36508;52.512;13.450;2023-07-22T09:08:45;17.90;99.90
50556;DHT22;36508;52.512;13.450;2023-07-22T09:11:11;17.80;99.90
50556;DHT22;36508;52.512;13.450;2023-07-22T09:13:37;17.80;99.90
50556;DHT22;36508;52.512;13.450;2023-07-22T09:16:06;17.90;99.90
50556;DHT22;36508;52.512;13.450;2023-07-22T09:18:34;18.00;99.90
50556;DHT22;36508;52.512;13.450;2023-07-22T09:21:00;18.10;99.90
50556;DHT22;36508;52.512;13.450;2023-07-22T09:23:35;18.20;99.90
50556;DHT22;36508;52.512;13.450;2023-07-22T09:26:15;18.20;99.90
50556;DHT22;36508;52.512;13.450;2023-07-22T09:28:52;18.40;99.90
50556;DHT22;36508;52.512;13.450;2023-07-22T09:31:20;18.40;99.90
50556;DHT22;36508;52.512;13.450;2023-07-22T09:33:45;18.50;99.90
50556;DHT22;36508;52.512;13.450;2023-07-22T09:36:11;18.70;99.90
50556;DHT22;36508;52.512;13.450;2023-07-22T09:38:37;18.70;99.90
50556;DHT22;36508;52.512;13.450;2023-07-22T09:41:03;19.00;99.90
50556;DHT22;36508;52.512;13.450;2023-07-22T09:43:30;19.00;99.90
50556;DHT22;36508;52.512;13.450;2023-07-22T09:45:55;18.80;99.90
50556;DHT22;36508;52.512;13.450;2023-07-22T09:48:22;19.00;99.90
50556;DHT22;36508;52.512;13.450;2023-07-22T09:50:58;19.10;99.90
50556;DHT22;36508;52.512;13.450;2023-07-22T09:53:24;19.30;99.90
50556;DHT22;36508;52.512;13.450;2023-07-22T09:55:52;19.40;99.90
50556;DHT22;36508;52.512;13.450;2023-07-22T09:58:18;19.20;99.90
50556;DHT22;36508;52.512;13.450;2023-07-22T10:00:48;19.20;99.90
50556;DHT22;36508;52.512;13.450;2023-07-22T10:03:18;19.30;99.90
50556;DHT22;36508;52.512;13.450;2023-07-22T10:05:45;19.30;99.90
50556;DHT22;36508;52.512;13.450;2023-07-22T10:08:18;19.60;99.90
50556;DHT22;36508;52.512;13.450;2023-07-22T10:10:44;19.70;99.90
50556;DHT22;36508;52.512;13.450;2023-07-22T10:13:10;19.70;99.90
50556;DHT22;36508;52.512;13.450;2023-07-22T10:15:36;19.40;99.90
50556;DHT22;36508;52.512;13.450;2023-07-22T10:18:03;19.30;99.90
50556;DHT22;36508;52.512;13.450;2023-07-22T10:20:34;19.10;99.90
50556;DHT22;36508;52.512;13.450;2023-07-22T10:23:02;19.20;99.90
50556;DHT22;36508;52.512;13.450;2023-07-22T10:25:30;19.40;99.90
50556;DHT22;36508;52.512;13.450;2023-07-22T10:28:21;19.40;99.90
50556;DHT22;36508;52.512;13.450;2023-07-22T10:30:47;19.30;99.90
50556;DHT22;36508;52.512;13.450;2023-07-22T10:33:13;19.50;99.90
50556;DHT22;36508;52.512;13.450;2023-07-22T10:35:43;19.70;99.90
50556;DHT22;36508;52.512;13.450;2023-07-22T10:38:14;19.80;99.90
50556;DHT22;36508;52.512;13.450;2023-07-22T10:43:16;19.70;99.90
50556;DHT22;36508;52.512;13.450;2023-07-22T10:45:50;19.50;99.90
50556;DHT22;36508;52.512;13.450;2023-07-22T10:48:17;19.40;99.90
50556;DHT22;36508;52.512;13.450;2023-07-22T10:50:49;20.00;99.90
50556;DHT22;36508;52.512;13.450;2023-07-22T10:53:28;21.10;99.90
50556;DHT22;36508;52.512;13.450;2023-07-22T10:56:14;22.50;99.90
50556;DHT22;36508;52.512;13.450;2023-07-22T11:11:54;19.80;99.90
50556;DHT22;36508;52.512;13.450;2023-07-22T11:14:48;20.00;99.90
50556;DHT22;36508;52.512;13.450;2023-07-22T11:17:15;20.40;99.90
50556;DHT22;36508;52.512;13.450;2023-07-22T11:19:41;20.30;99.90
50556;DHT22;36508;52.512;13.450;2023-07-22T11:22:07;20.10;99.90
50556;DHT22;36508;52.512;13.450;2023-07-22T11:24:34;20.00;99.90
50556;DHT22;36508;52.512;13.450;2023-07-22T11:27:06;19.90;99.90
50556;DHT22;36508;52.512;13.450;2023-07-22T11:29:32;20.30;99.90
50556;DHT22;36508;52.512;13.450;2023-07-22T11:31:57;21.10;99.90
50556;DHT22;36508;52.512;13.450;2023-07-22T11:34:24;22.00;99.90
50556;DHT22;36508;52.512;13.450;2023-07-22T11:36:51;23.10;99.90
50556;DHT22;36508;52.512;13.450;2023-07-22T11:39:21;24.40;99.90
50556;DHT22;36508;52.512;13.450;2023-07-22T11:41:48;25.50;99.90
50556;DHT22;36508;52.512;13.450;2023-07-22T11:44:16;26.20;99.90
50556;DHT22;36508;52.512;13.450;2023-07-22T11:49:33;24.40;99.90
50556;DHT22;36508;52.512;13.450;2023-07-22T11:52:04;24.20;99.90
50556;DHT22;36508;52.512;13.450;2023-07-22T11:54:32;23.90;99.90
50556;DHT22;36508;52.512;13.450;2023-07-22T11:57:21;23.50;99.90
50556;DHT22;36508;52.512;13.450;2023-07-22T11:59:49;23.30;99.90
50556;DHT22;36508;52.512;13.450;2023-07-22T12:02:22;23.90;99.90
50556;DHT22;36508;52.512;13.450;2023-07-22T12:04:56;23.70;99.90
50556;DHT22;36508;52.512;13.450;2023-07-22T12:07:33;23.50;99.90
50556;DHT22;36508;52.512;13.450;2023-07-22T12:10:01;23.60;99.90
50556;DHT22;36508;52.512;13.450;2023-07-22T12:12:45;23.00;99.90
50556;DHT22;36508;52.512;13.450;2023-07-22T12:15:16;22.60;99.90
50556;DHT22;36508;52.512;13.450;2023-07-22T12:17:53;22.00;99.90
50556;DHT22;36508;52.512;13.450;2023-07-22T12:20:19;21.90;99.90
50556;DHT22;36508;52.512;13.450;2023-07-22T12:22:48;22.40;99.90
50556;DHT22;36508;52.512;13.450;2023-07-22T12:25:14;22.80;99.90
50556;DHT22;36508;52.512;13.450;2023-07-22T12:27:41;23.20;99.90
50556;DHT22;36508;52.512;13.450;2023-07-22T12:30:07;23.70;99.90
50556;DHT22;36508;52.512;13.450;2023-07-22T12:32:34;23.40;99.90
50556;DHT22;36508;52.512;13.450;2023-07-22T12:35:00;23.10;99.90
50556;DHT22;36508;52.512;13.450;2023-07-22T12:37:26;23.10;99.90
50556;DHT22;36508;52.512;13.450;2023-07-22T12:39:51;22.80;99.90
50556;DHT22;36508;52.512;13.450;2023-07-22T12:42:17;22.80;99.90
50556;DHT22;36508;52.512;13.450;2023-07-22T12:44:43;22.60;99.90
50556;DHT22;36508;52.512;13.450;2023-07-22T12:47:08;22.40;99.90
50556;DHT22;36508;52.512;13.450;2023-07-22T12:49:34;22.10;99.90
50556;DHT22;36508;52.512;13.450;2023-07-22T12:51:59;21.90;99.90
50556;DHT22;36508;52.512;13.450;2023-07-22T12:54:29;22.00;99.90
50556;DHT22;36508;52.512;13.450;2023-07-22T12:56:56;21.90;99.90
50556;DHT22;36508;52.512;13.450;2023-07-22T12:59:22;21.80;99.90
50556;DHT22;36508;52.512;13.450;2023-07-22T13:01:47;22.10;99.90
50556;DHT22;36508;52.512;13.450;2023-07-22T13:04:13;22.20;99.90
50556;DHT22;36508;52.512;13.450;2023-07-22T13:06:38;22.20;99.90
50556;DHT22;36508;52.512;13.450;2023-07-22T13:09:04;22.20;99.90
50556;DHT22;36508;52.512;13.450;2023-07-22T13:11:30;21.90;99.90
50556;DHT22;36508;52.512;13.450;2023-07-22T13:13:55;21.90;99.90
50556;DHT22;36508;52.512;13.450;2023-07-22T13:16:21;22.00;99.90
50556;DHT22;36508;52.512;13.450;2023-07-22T13:18:46;22.20;99.90
50556;DHT22;36508;52.512;13.450;2023-07-22T13:21:12;22.20;99.90
50556;DHT22;36508;52.512;13.450;2023-07-22T13:23:37;22.10;99.90
50556;DHT22;36508;52.512;13.450;2023-07-22T13:26:03;21.60;99.90
50556;DHT22;36508;52.512;13.450;2023-07-22T13:28:28;21.60;99.90
50556;DHT22;36508;52.512;13.450;2023-07-22T13:30:54;21.80;99.90
50556;DHT22;36508;52.512;13.450;2023-07-22T13:33:19;21.80;99.90
50556;DHT22;36508;52.512;13.450;2023-07-22T13:35:45;21.80;99.90
50556;DHT22;36508;52.512;13.450;2023-07-22T13:38:11;22.00;99.90
50556;DHT22;36508;52.512;13.450;2023-07-22T13:40:36;22.30;99.90
50556;DHT22;36508;52.512;13.450;2023-07-22T13:43:02;22.50;99.90
50556;DHT22;36508;52.512;13.450;2023-07-22T13:45:28;22.50;99.90
50556;DHT22;36508;52.512;13.450;2023-07-22T13:47:53;22.30;99.90
50556;DHT22;36508;52.512;13.450;2023-07-22T13:50:19;22.30;99.90
50556;DHT22;36508;52.512;13.450;2023-07-22T13:52:44;22.20;99.90
50556;DHT22;36508;52.512;13.450;2023-07-22T13:55:13;22.10;99.90
50556;DHT22;36508;52.512;13.450;2023-07-22T13:57:47;22.50;99.90
50556;DHT22;36508;52.512;13.450;2023-07-22T14:00:13;22.70;99.90
50556;DHT22;36508;52.512;13.450;2023-07-22T14:02:40;23.00;99.90
50556;DHT22;36508;52.512;13.450;2023-07-22T14:05:06;22.70;99.90
50556;DHT22;36508;52.512;13.450;2023-07-22T14:07:32;22.40;99.90
50556;DHT22;36508;52.512;13.450;2023-07-22T14:09:57;22.30;99.90
50556;DHT22;36508;52.512;13.450;2023-07-22T14:12:23;22.10;99.90
50556;DHT22;36508;52.512;13.450;2023-07-22T14:14:48;22.30;99.90
50556;DHT22;36508;52.512;13.450;2023-07-22T14:17:14;22.50;99.90
50556;DHT22;36508;52.512;13.450;2023-07-22T14:19:40;22.50;99.90
50556;DHT22;36508;52.512;13.450;2023-07-22T14:22:05;22.20;99.90
50556;DHT22;36508;52.512;13.450;2023-07-22T14:24:31;22.00;99.90
50556;DHT22;36508;52.512;13.450;2023-07-22T14:26:56;22.10;99.90
50556;DHT22;36508;52.512;13.450;2023-07-22T14:29:22;22.20;99.90
50556;DHT22;36508;52.512;13.450;2023-07-22T14:31:48;22.20;99.90
50556;DHT22;36508;52.512;13.450;2023-07-22T14:34:13;22.10;99.90
50556;DHT22;36508;52.512;13.450;2023-07-22T14:36:39;22.10;99.90
50556;DHT22;36508;52.512;13.450;2023-07-22T14:39:04;22.20;99.90
50556;DHT22;36508;52.512;13.450;2023-07-22T14:41:30;22.00;99.90
50556;DHT22;36508;52.512;13.450;2023-07-22T14:43:56;22.20;99.90
50556;DHT22;36508;52.512;13.450;2023-07-22T14:46:22;22.20;99.90
50556;DHT22;36508;52.512;13.450;2023-07-22T14:48:48;22.10;99.90
50556;DHT22;36508;52.512;13.450;2023-07-22T14:51:13;22.10;99.90
50556;DHT22;36508;52.512;13.450;2023-07-22T14:53:39;22.10;99.90
50556;DHT22;36508;52.512;13.450;2023-07-22T14:56:05;21.80;99.90
50556;DHT22;36508;52.512;13.450;2023-07-22T14:58:32;21.70;99.90
50556;DHT22;36508;52.512;13.450;2023-07-22T15:00:58;21.70;99.90
50556;DHT22;36508;52.512;13.450;2023-07-22T15:03:23;21.50;99.90
50556;DHT22;36508;52.512;13.450;2023-07-22T15:05:49;21.50;99.90
50556;DHT22;36508;52.512;13.450;2023-07-22T15:08:14;21.50;99.90
50556;DHT22;36508;52.512;13.450;2023-07-22T15:10:40;21.40;99.90
50556;DHT22;36508;52.512;13.450;2023-07-22T15:13:06;21.50;99.90
50556;DHT22;36508;52.512;13.450;2023-07-22T15:15:31;21.60;99.90
50556;DHT22;36508;52.512;13.450;2023-07-22T15:17:57;21.60;99.90
50556;DHT22;36508;52.512;13.450;2023-07-22T15:20:23;21.60;99.90
50556;DHT22;36508;52.512;13.450;2023-07-22T15:22:49;21.60;99.90
50556;DHT22;36508;52.512;13.450;2023-07-22T15:25:14;21.50;99.90
50556;DHT22;36508;52.512;13.450;2023-07-22T15:27:40;21.50;99.90
50556;DHT22;36508;52.512;13.450;2023-07-22T15:30:06;21.40;99.90
50556;DHT22;36508;52.512;13.450;2023-07-22T15:32:32;21.40;99.90